createdAt,value
2023-04-17T00:02:12.179Z,21.30
2023-04-17T00:07:14.823Z,20.90
2023-04-17T00:12:16.971Z,19.20
2023-04-17T00:17:19.108Z,22.30
2023-04-17T00:22:21.217Z,21.90
2023-04-17T00:27:23.925Z,20.40
2023-04-17T00:32:25.858Z,19.60
2023-04-17T00:37:27.879Z,18.80
2023-04-17T00:42:29.687Z,17.30
2023-04-17T00:47:33.195Z,18.10
2023-04-17T00:52:35.078Z,16.30
2023-04-17T00:57:37.436Z,14.40
2023-04-17T01:02:40.215Z,15.00
2023-04-17T01:07:44.021Z,14.30
2023-04-17T01:12:49.419Z,15.30
2023-04-17T01:17:52.412Z,16.50
2023-04-17T01:22:54.200Z,17.30
2023-04-17T01:27:57.317Z,16.60
2023-04-17T01:33:01.131Z,16.70
2023-04-17T01:38:04.190Z,17.50
2023-04-17T01:43:06.155Z,17.50
2023-04-17T01:48:08.288Z,17.60
2023-04-17T01:53:10.381Z,17.30
2023-04-17T01:58:12.320Z,18.50
2023-04-17T02:03:14.677Z,18.70
2023-04-17T02:08:17.335Z,18.40
2023-04-17T02:13:19.213Z,19.90
2023-04-17T02:18:21.285Z,20.70
2023-04-17T02:23:23.222Z,19.80
2023-04-17T02:28:25.638Z,17.50
2023-04-17T02:33:28.200Z,19.50
2023-04-17T02:38:30.678Z,19.10
2023-04-17T02:43:32.886Z,18.00
2023-04-17T02:48:34.818Z,20.50
2023-04-17T02:53:36.650Z,20.50
2023-04-17T02:58:39.756Z,20.00
2023-04-17T03:03:43.205Z,22.00
2023-04-17T03:08:47.932Z,20.70
2023-04-17T03:13:50.723Z,20.20
2023-04-17T03:18:52.787Z,22.20
2023-04-17T03:23:54.689Z,22.00
2023-04-17T03:28:58.128Z,22.50
2023-04-17T03:34:00.659Z,21.30
2023-04-17T03:39:03.158Z,22.70
2023-04-17T03:44:05.832Z,22.40
2023-04-17T03:49:08.227Z,23.30
2023-04-17T03:54:10.404Z,22.80
2023-04-17T03:59:12.515Z,25.40
2023-04-17T04:04:17.547Z,25.90
2023-04-17T04:09:27.484Z,26.00
2023-04-17T04:14:29.832Z,26.60
2023-04-17T04:19:31.952Z,28.00
2023-04-17T04:24:35.349Z,27.80
2023-04-17T04:29:38.821Z,27.40
2023-04-17T04:34:44.794Z,27.70
2023-04-17T04:39:48.021Z,27.80
2023-04-17T04:44:50.698Z,30.20
2023-04-17T04:49:53.947Z,28.50
2023-04-17T04:54:56.364Z,27.20
2023-04-17T04:59:59.599Z,30.40
2023-04-17T05:05:11.160Z,30.40
2023-04-17T05:10:13.822Z,29.50
2023-04-17T05:15:20.421Z,28.40
2023-04-17T05:20:23.468Z,28.60
2023-04-17T05:25:29.107Z,29.20
2023-04-17T05:30:32.268Z,29.40
2023-04-17T05:35:43.828Z,28.40
2023-04-17T05:40:46.268Z,32.30
2023-04-17T05:45:49.091Z,32.40
2023-04-17T05:50:51.402Z,32.20
2023-04-17T05:55:53.198Z,32.70
2023-04-17T06:00:56.891Z,34.50
2023-04-17T06:06:00.250Z,36.50
2023-04-17T06:11:02.390Z,35.90
2023-04-17T06:16:05.767Z,33.80
2023-04-17T06:21:08.244Z,34.20
2023-04-17T06:26:12.355Z,32.90
2023-04-17T06:31:15.862Z,33.00
2023-04-17T06:36:18.094Z,30.70
2023-04-17T06:41:31.052Z,31.40
2023-04-17T06:46:33.033Z,30.60
2023-04-17T06:51:39.040Z,30.70
2023-04-17T06:56:41.097Z,31.80
2023-04-17T07:01:43.107Z,31.40
2023-04-17T07:06:45.231Z,31.70
2023-04-17T07:11:47.259Z,31.90
2023-04-17T07:16:49.272Z,31.00
2023-04-17T07:21:52.034Z,30.80
2023-04-17T07:26:53.995Z,30.30
2023-04-17T07:31:56.543Z,31.50
2023-04-17T07:36:58.581Z,30.00
2023-04-17T07:42:03.037Z,29.60
2023-04-17T07:47:04.964Z,29.80
2023-04-17T07:52:07.107Z,28.70
2023-04-17T07:57:09.029Z,29.60
2023-04-17T08:02:11.260Z,29.10
2023-04-17T08:07:13.194Z,28.20
2023-04-17T08:12:15.207Z,27.80
2023-04-17T08:17:20.346Z,28.20
2023-04-17T08:22:24.244Z,28.70
2023-04-17T08:27:26.209Z,28.50
2023-04-17T08:32:28.610Z,28.40
2023-04-17T08:37:34.253Z,27.80
2023-04-17T08:42:38.146Z,29.00
2023-04-17T08:47:42.283Z,29.80
2023-04-17T08:52:47.661Z,28.10
2023-04-17T08:58:04.102Z,26.80
2023-04-17T09:03:08.527Z,27.60
2023-04-17T09:08:13.377Z,27.70
2023-04-17T09:13:25.056Z,25.60
2023-04-17T09:18:31.154Z,27.20
2023-04-17T09:23:56.165Z,27.00
2023-04-17T09:29:11.375Z,25.10
2023-04-17T09:34:15.455Z,23.20
2023-04-17T09:39:20.941Z,22.60
2023-04-17T09:44:28.455Z,21.80
2023-04-17T09:49:35.130Z,21.70
2023-04-17T09:54:40.010Z,21.90
2023-04-17T09:59:47.911Z,20.00
2023-04-17T10:04:49.854Z,19.60
2023-04-17T10:09:51.999Z,20.20
2023-04-17T10:14:55.106Z,18.60
2023-04-17T10:20:20.296Z,19.90
2023-04-17T10:25:29.759Z,18.20
2023-04-17T10:30:54.902Z,18.40
2023-04-17T10:35:57.821Z,17.60
2023-04-17T10:41:02.700Z,16.00
2023-04-17T10:46:15.222Z,12.40
2023-04-17T10:51:29.299Z,11.40
2023-04-17T10:56:38.685Z,11.40
2023-04-17T11:01:58.343Z,10.20
2023-04-17T11:07:01.053Z,11.30
2023-04-17T11:12:03.255Z,9.30
2023-04-17T11:17:05.609Z,13.10
2023-04-17T11:22:09.688Z,11.40
2023-04-17T11:27:11.800Z,10.90
2023-04-17T11:32:13.740Z,11.10
2023-04-17T11:37:16.221Z,11.00
2023-04-17T11:42:27.802Z,11.30
2023-04-17T11:47:30.067Z,10.90
2023-04-17T11:52:32.288Z,11.20
2023-04-17T11:57:43.653Z,13.90
2023-04-17T12:02:45.677Z,12.70
2023-04-17T12:07:47.916Z,12.50
2023-04-17T12:12:49.840Z,10.70
2023-04-17T12:17:51.962Z,8.70
2023-04-17T12:22:53.810Z,10.50
2023-04-17T12:27:59.163Z,10.10
2023-04-17T12:33:01.787Z,8.70
2023-04-17T12:38:04.194Z,8.40
2023-04-17T12:43:08.715Z,9.40
2023-04-17T12:48:11.511Z,9.60
2023-04-17T12:53:14.605Z,7.80
2023-04-17T12:58:16.881Z,7.50
2023-04-17T13:03:18.887Z,8.00
2023-04-17T13:08:21.521Z,6.60
2023-04-17T13:13:23.559Z,8.50
2023-04-17T13:18:26.491Z,8.70
2023-04-17T13:23:28.440Z,10.40
2023-04-17T13:28:30.519Z,10.70
2023-04-17T13:33:32.438Z,10.40
2023-04-17T13:38:35.074Z,10.60
2023-04-17T13:43:37.101Z,10.20
2023-04-17T13:48:39.368Z,9.90
2023-04-17T13:53:41.199Z,9.50
2023-04-17T13:58:44.540Z,9.30
2023-04-17T14:03:47.417Z,10.00
2023-04-17T14:08:49.845Z,9.30
2023-04-17T14:13:51.820Z,10.20
2023-04-17T14:18:54.099Z,11.10
2023-04-17T14:23:56.991Z,8.80
2023-04-17T14:28:59.017Z,7.50
2023-04-17T14:34:00.799Z,8.00
2023-04-17T14:39:03.374Z,8.00
2023-04-17T14:44:05.376Z,8.90
2023-04-17T14:49:08.661Z,8.00
2023-04-17T14:54:10.518Z,7.20
2023-04-17T14:59:12.729Z,5.40
2023-04-17T15:04:15.130Z,5.40
2023-04-17T15:09:17.335Z,4.60
2023-04-17T15:14:19.974Z,4.60
2023-04-17T15:19:21.992Z,5.50
2023-04-17T15:24:23.779Z,6.60
2023-04-17T15:29:25.841Z,5.90
2023-04-17T15:34:27.669Z,6.80
2023-04-17T15:39:30.416Z,8.40
2023-04-17T15:44:34.090Z,9.50
2023-04-17T15:49:36.074Z,11.30
2023-04-17T15:54:37.936Z,9.70
2023-04-17T15:59:40.115Z,9.60
2023-04-17T16:04:43.873Z,10.50
2023-04-17T16:09:48.048Z,10.90
2023-04-17T16:14:50.778Z,13.30
2023-04-17T16:19:52.947Z,12.40
2023-04-17T16:24:54.764Z,12.50
2023-04-17T16:29:56.837Z,12.00
2023-04-17T16:34:59.168Z,12.10
2023-04-17T16:40:05.328Z,13.70
2023-04-17T16:45:08.314Z,16.40
2023-04-17T16:50:12.556Z,16.00
2023-04-17T16:55:17.148Z,15.00
2023-04-17T17:00:20.206Z,13.10
2023-04-17T17:05:22.223Z,14.90
2023-04-17T17:10:24.238Z,12.20
2023-04-17T17:15:26.569Z,12.70
2023-04-17T17:20:28.735Z,12.50
2023-04-17T17:25:30.733Z,14.10
2023-04-17T17:30:32.837Z,13.70
2023-04-17T17:35:34.770Z,14.20
2023-04-17T17:40:37.452Z,16.00
2023-04-17T17:45:39.518Z,16.40
2023-04-17T17:50:42.943Z,18.50
2023-04-17T17:55:53.173Z,19.00
2023-04-17T18:05:57.263Z,16.60
2023-04-17T18:11:01.616Z,16.10
2023-04-17T18:16:05.019Z,13.80
2023-04-17T18:21:08.304Z,16.70
2023-04-17T18:26:10.281Z,16.30
2023-04-17T18:31:12.585Z,17.00
2023-04-17T18:36:14.394Z,15.50
2023-04-17T18:41:16.736Z,15.40
2023-04-17T18:46:18.784Z,16.30
2023-04-17T18:51:21.818Z,15.20
2023-04-17T18:56:26.787Z,14.30
2023-04-17T19:01:29.153Z,13.40
2023-04-17T19:06:31.719Z,13.50
2023-04-17T19:11:34.119Z,14.60
2023-04-17T19:16:36.265Z,12.80
2023-04-17T19:21:38.480Z,12.60
2023-04-17T19:26:40.796Z,13.30
2023-04-17T19:31:43.452Z,13.60
2023-04-17T19:36:45.422Z,11.80
2023-04-17T19:41:51.061Z,11.90
2023-04-17T19:46:53.302Z,11.40
2023-04-17T19:51:55.356Z,9.80
2023-04-17T19:56:57.212Z,10.10
2023-04-17T20:01:59.678Z,10.00
2023-04-17T20:07:02.230Z,11.10
2023-04-17T20:12:05.807Z,10.80
2023-04-17T20:17:08.715Z,10.60
2023-04-17T20:22:10.964Z,10.80
2023-04-17T20:27:12.792Z,10.10
2023-04-17T20:32:15.296Z,11.60
2023-04-17T20:37:17.193Z,12.00
2023-04-17T20:42:19.591Z,10.70
2023-04-17T20:47:21.561Z,10.60
2023-04-17T20:52:23.916Z,9.30
2023-04-17T20:57:25.967Z,9.10
2023-04-17T21:02:28.165Z,8.90
2023-04-17T21:07:31.020Z,11.40
2023-04-17T21:12:35.324Z,10.80
2023-04-17T21:17:39.446Z,10.10
2023-04-17T21:22:41.842Z,8.50
2023-04-17T21:27:43.834Z,7.70
2023-04-17T21:32:47.611Z,8.30
2023-04-17T21:37:49.704Z,7.50
2023-04-17T21:42:52.945Z,7.90
2023-04-17T21:47:54.908Z,8.00
2023-04-17T21:52:58.531Z,7.50
2023-04-17T21:58:00.632Z,5.90
2023-04-17T22:03:03.341Z,6.40
2023-04-17T22:08:05.299Z,5.60
2023-04-17T22:13:07.363Z,6.70
2023-04-17T22:18:09.349Z,6.10
2023-04-17T22:23:11.265Z,5.50
2023-04-17T22:28:13.144Z,5.60
2023-04-17T22:33:15.526Z,5.40
2023-04-17T22:38:18.988Z,7.70
2023-04-17T22:43:21.040Z,7.50
2023-04-17T22:48:24.691Z,6.30
2023-04-17T22:53:26.937Z,6.70
2023-04-17T22:58:31.985Z,7.60
2023-04-17T23:03:35.066Z,6.60
2023-04-17T23:08:37.556Z,6.90
2023-04-17T23:13:45.780Z,6.30
2023-04-17T23:18:47.998Z,5.50
2023-04-17T23:23:51.670Z,6.40
2023-04-17T23:28:53.623Z,6.50
2023-04-17T23:33:55.891Z,5.80
2023-04-17T23:38:57.746Z,6.20
2023-04-17T23:44:00.593Z,6.40
2023-04-17T23:49:06.709Z,6.70
2023-04-17T23:54:10.452Z,5.90
2023-04-17T23:59:12.288Z,6.10
